Theodore Francis Green State Airport
KPVD : now visible

Airfield :











YOU CAN JOIN US ON...

 
LOGIN :

Register | Disclaimer

   EN    FR    IT 

 









Legend :    VFR   Marginal VFR   IFR   Intensive IFR   Very Intensive IFR
Visi :
Ceiling :
>= 8 km
>= 3000ft
5 to 8 km
1000 to 3000 ft
1500m to 5 km
500 to 1000 ft
800 to 1500m
200 to 500 ft
< 800m
< 200 ft
Symbols :   Thunderstorms  Fog  Heavy snow  Heavy precipitations  Wind > 20 kt






- Airport Elevation : 55 ft
- IATA code : PVD


KPVD - Theodore Francis Green State

CURRENT METAR :
  • 211051Z 00000KT 10SM CLR M09/M17 A3038 RMK AO2 SLP289 T10941167 $

EXPIRED METARs :
  • 210951Z AUTO 30005KT 10SM CLR M09/M17 A3036 RMK AO2 SLP280 T10941172 $
  • 210851Z AUTO 24004KT 10SM CLR M09/M17 A3034 RMK AO2 SLP275 T10941167 51006 $

TAF KPVD
Valid from the 21 at 12:00 until the 22 at 12:00 UTC


211132Z 2112/2212 35005KT P6SM FEW250
FM220200 33003KT P6SM SCT120
FM221100 31003KT P6SM FEW250



MET'MAP, your aeronautical weather chart ! - Copyright ORBIFLY December 2007 - Disclaimer

ORBIFLY MET'MAP TEAM :

Programming & Development : Alexandra Zaïnal
Concept & original design : Baudouin d'Aumeries
Assistance for programming : Marc-Olivier Méhu
Technical & hardware support : Manuel Goepfert

Contact : metmap@orbifly.com




SOURCES & CREDITS :

   NOAA       Earth
Advisory